Time;durP1;ratioP1;P1;durP2;ratioP2;P2;SDS_P1;SDS_P2;PMS_P1;PMS_P2;Temp;Humidity;BMP_temperature;BMP_pressure;BME280_temperature;BME280_humidity;BME280_pressure;Samples;Min_cycle;Max_cycle;Signal;HPM_P1;HPM_P2
2022/09/26 00:00:41;;;;;;;10.73;6.27;;;;;;;10.31;99.85;100828.19;5037899;28;20040;-84
2022/09/26 00:03:07;;;;;;;11.63;6.37;;;;;;;10.33;99.70;100827.97;5069445;28;20633;-84
2022/09/26 00:05:33;;;;;;;9.33;5.53;;;;;;;10.33;100.00;100830.69;5032630;28;20118;-85
2022/09/26 00:07:58;;;;;;;8.47;5.70;;;;;;;10.33;100.00;100833.38;5038314;28;20041;-84
2022/09/26 00:10:24;;;;;;;7.40;5.33;;;;;;;10.33;99.63;100825.28;5036197;28;20488;-85
2022/09/26 00:12:49;;;;;;;7.40;5.27;;;;;;;10.32;99.76;100827.13;5038289;28;20076;-84
2022/09/26 00:15:14;;;;;;;7.93;5.40;;;;;;;10.34;99.64;100810.69;5036862;28;20040;-84
2022/09/26 00:17:40;;;;;;;6.63;5.07;;;;;;;10.33;99.79;100811.72;5038392;28;20044;-83
2022/09/26 00:20:05;;;;;;;7.43;5.30;;;;;;;10.35;99.76;100820.50;5037341;28;20512;-85
2022/09/26 00:22:31;;;;;;;6.90;5.10;;;;;;;10.33;100.00;100809.00;5052477;28;20147;-87
2022/09/26 00:24:56;;;;;;;8.47;5.13;;;;;;;10.34;99.83;100803.38;5037512;28;20052;-84
2022/09/26 00:27:21;;;;;;;7.93;5.00;;;;;;;10.35;99.93;100793.41;5068916;28;20903;-84
2022/09/26 00:29:47;;;;;;;6.97;5.20;;;;;;;10.31;99.92;100790.28;5037228;28;20481;-84
2022/09/26 00:32:12;;;;;;;9.03;5.33;;;;;;;10.37;99.75;100792.16;5069836;28;20606;-83
2022/09/26 00:34:38;;;;;;;7.37;5.37;;;;;;;10.38;99.77;100784.88;5035655;28;20041;-83
2022/09/26 00:37:03;;;;;;;8.40;5.17;;;;;;;10.40;99.49;100780.06;5037023;28;20108;-83
2022/09/26 00:39:28;;;;;;;9.23;5.30;;;;;;;10.42;99.23;100780.69;5037746;28;20116;-84
2022/09/26 00:41:54;;;;;;;5.77;4.90;;;;;;;10.45;98.90;100777.56;5069069;28;20068;-85
2022/09/26 00:44:43;;;;;;;9.07;5.80;;;;;;;10.49;98.92;100770.66;5035839;28;20080;-86
2022/09/26 00:47:21;;;;;;;8.63;5.70;;;;;;;10.52;98.34;100772.94;5037478;28;20032;-84
2022/09/26 00:49:48;;;;;;;7.33;5.30;;;;;;;10.50;98.66;100764.22;5037202;28;20119;-83
2022/09/26 00:52:24;;;;;;;9.53;5.67;;;;;;;10.53;98.66;100763.78;5037167;28;20053;-83
2022/09/26 00:54:53;;;;;;;8.70;5.77;;;;;;;10.54;98.25;100754.63;5037024;28;20056;-84
2022/09/26 00:57:25;;;;;;;10.10;6.23;;;;;;;10.55;98.55;100756.28;5037283;28;20033;-84
2022/09/26 01:00:00;;;;;;;8.37;5.93;;;;;;;10.58;97.96;100750.44;5035724;28;20044;-86
2022/09/26 01:02:28;;;;;;;8.90;6.20;;;;;;;10.55;97.92;100740.03;5037861;28;20135;-85
2022/09/26 01:04:57;;;;;;;9.60;5.97;;;;;;;10.57;97.98;100740.63;5037211;28;20488;-86
2022/09/26 01:07:25;;;;;;;11.23;6.80;;;;;;;10.58;97.88;100738.75;5036950;28;20115;-85
2022/09/26 01:09:51;;;;;;;8.63;5.90;;;;;;;10.59;97.50;100729.56;5036346;28;20190;-85
2022/09/26 01:12:17;;;;;;;9.67;6.03;;;;;;;10.59;97.61;100718.75;5037085;28;20036;-85
2022/09/26 01:14:45;;;;;;;8.60;6.10;;;;;;;10.56;97.67;100713.75;5036308;28;20603;-85
2022/09/26 01:17:10;;;;;;;12.50;6.30;;;;;;;10.58;97.25;100711.66;5036983;28;20209;-83
2022/09/26 01:20:01;;;;;;;9.57;6.37;;;;;;;10.54;98.31;100705.84;5068457;28;20492;-85
2022/09/26 01:22:53;;;;;;;11.07;6.77;;;;;;;10.54;98.19;100705.84;5036548;28;20033;-85
2022/09/26 01:25:40;;;;;;;10.00;6.50;;;;;;;10.52;98.04;100690.84;5036307;28;20512;-86
2022/09/26 01:28:12;;;;;;;10.47;6.20;;;;;;;10.54;97.77;100683.31;5026565;28;20607;-84
2022/09/26 01:30:46;;;;;;;9.10;5.90;;;;;;;10.53;97.95;100677.09;5036126;28;20044;-84
2022/09/26 01:33:23;;;;;;;9.43;6.07;;;;;;;10.53;98.02;100677.09;5031313;28;20029;-84
2022/09/26 01:35:54;;;;;;;7.03;5.50;;;;;;;10.61;97.10;100668.72;5035796;28;20041;-86
2022/09/26 01:38:34;;;;;;;9.57;6.20;;;;;;;10.58;97.17;100652.91;5036708;28;20044;-85
2022/09/26 01:41:17;;;;;;;10.83;5.77;;;;;;;10.63;97.14;100644.09;5035955;28;20036;-88
2022/09/26 01:44:07;;;;;;;6.70;5.07;;;;;;;10.68;95.66;100641.59;5036575;28;20033;-85
2022/09/26 01:46:45;;;;;;;10.07;5.30;;;;;;;10.67;95.32;100647.22;5036345;28;20064;-83
2022/09/26 01:49:19;;;;;;;8.47;4.57;;;;;;;10.71;94.34;100626.78;5036365;28;21340;-85
2022/09/26 01:51:55;;;;;;;8.35;5.13;;;;;;;10.71;94.55;100627.59;5035600;28;20025;-87
2022/09/26 01:54:25;;;;;;;9.53;5.13;;;;;;;10.71;94.08;100621.34;5036042;28;20032;-85
2022/09/26 01:56:57;;;;;;;8.17;4.80;;;;;;;10.74;93.63;100620.91;5035390;28;20075;-87
2022/09/26 01:59:33;;;;;;;7.03;4.70;;;;;;;10.79;93.23;100616.50;5036326;28;20039;-85
2022/09/26 02:02:09;;;;;;;8.37;4.93;;;;;;;10.74;93.47;100612.78;5035958;28;20041;-85
2022/09/26 02:04:42;;;;;;;8.47;4.47;;;;;;;10.73;93.63;100605.69;5036119;28;20037;-86
2022/09/26 02:07:10;;;;;;;10.57;4.90;;;;;;;10.70;94.15;100600.72;5067849;28;20029;-86
2022/09/26 02:09:43;;;;;;;8.03;4.40;;;;;;;10.63;94.02;100598.91;5024977;28;20519;-83
2022/09/26 02:12:16;;;;;;;7.27;4.47;;;;;;;10.74;93.16;100593.81;5036060;28;20060;-84
2022/09/26 02:14:44;;;;;;;11.20;4.60;;;;;;;10.69;93.08;100593.63;5035764;28;20127;-85
2022/09/26 02:17:14;;;;;;;7.43;4.33;;;;;;;10.60;93.42;100593.88;5036480;28;20040;-85
2022/09/26 02:19:50;;;;;;;7.37;4.70;;;;;;;10.59;93.88;100578.72;5035981;28;20036;-86
2022/09/26 02:22:16;;;;;;;8.33;4.57;;;;;;;10.60;93.26;100571.41;5067696;28;20036;-85
2022/09/26 02:24:41;;;;;;;7.80;4.27;;;;;;;10.62;93.64;100567.41;5035235;28;20075;-85
2022/09/26 02:27:07;;;;;;;10.53;4.43;;;;;;;10.60;93.32;100558.66;5035473;28;20037;-83
2022/09/26 02:29:33;;;;;;;9.03;4.30;;;;;;;10.58;93.29;100558.06;5035881;28;20041;-85
2022/09/26 02:32:04;;;;;;;6.93;4.20;;;;;;;10.63;92.53;100560.97;5035576;28;20041;-87
2022/09/26 02:34:30;;;;;;;5.60;4.03;;;;;;;10.60;92.94;100553.25;5042218;28;20420;-83
2022/09/26 02:36:56;;;;;;;9.17;4.27;;;;;;;10.68;92.03;100551.34;5035767;28;20056;-86
2022/09/26 02:39:23;;;;;;;10.00;4.17;;;;;;;10.61;92.27;100544.09;5035813;28;20037;-85
2022/09/26 02:41:59;;;;;;;9.27;3.90;;;;;;;10.64;92.05;100543.63;5041624;28;20041;-84
2022/09/26 02:44:35;;;;;;;9.00;3.90;;;;;;;10.62;92.13;100537.63;5035610;28;20033;-86
2022/09/26 02:47:21;;;;;;;7.53;3.70;;;;;;;10.69;91.17;100539.44;5035290;28;20615;-83
2022/09/26 02:50:01;;;;;;;9.93;3.90;;;;;;;10.66;91.52;100534.47;5035749;28;20047;-85
2022/09/26 02:53:04;;;;;;;7.93;3.63;;;;;;;10.76;90.32;100534.81;5039368;28;20083;-85
2022/09/26 02:55:45;;;;;;;5.80;3.60;;;;;;;10.68;90.54;100532.38;5039506;28;20822;-85
2022/09/26 02:58:34;;;;;;;8.30;3.80;;;;;;;10.67;90.21;100522.59;5039077;28;20070;-85
2022/09/26 03:01:09;;;;;;;7.47;3.60;;;;;;;10.67;90.35;100520.69;5039080;28;20155;-83
2022/09/26 03:03:46;;;;;;;7.03;3.40;;;;;;;10.63;90.18;100514.91;5039295;28;20037;-84
2022/09/26 03:06:16;;;;;;;7.03;3.40;;;;;;;10.63;90.32;100514.91;5039188;28;20041;-82
2022/09/26 03:08:46;;;;;;;5.87;3.20;;;;;;;10.73;89.01;100517.13;5071550;28;20381;-85
2022/09/26 03:11:17;;;;;;;6.77;3.43;;;;;;;10.61;90.05;100508.03;5038713;28;21468;-86
2022/09/26 03:13:44;;;;;;;8.50;3.37;;;;;;;10.61;90.25;100508.84;5038084;28;20067;-85
2022/09/26 03:16:11;;;;;;;7.70;3.30;;;;;;;10.57;90.73;100498.69;5070530;28;20043;-85
2022/09/26 03:18:49;;;;;;;5.80;3.10;;;;;;;10.60;90.44;100498.25;5071285;28;20040;-87
2022/09/26 03:21:14;;;;;;;7.23;3.40;;;;;;;10.58;90.43;100498.47;5038873;28;20089;-84
2022/09/26 03:23:40;;;;;;;7.77;3.10;;;;;;;10.53;90.82;100497.47;5039376;28;20041;-86
2022/09/26 03:26:12;;;;;;;9.37;3.50;;;;;;;10.46;91.67;100490.22;5020525;28;20055;-85
2022/09/26 03:28:38;;;;;;;6.07;3.10;;;;;;;10.52;90.41;100464.13;5039089;28;20037;-87
2022/09/26 03:31:04;;;;;;;7.00;3.07;;;;;;;10.45;91.12;100471.47;5036982;28;20041;-85
2022/09/26 03:33:30;;;;;;;5.40;3.13;;;;;;;10.50;90.40;100466.25;5039070;28;20039;-85
2022/09/26 03:35:58;;;;;;;6.73;2.83;;;;;;;10.41;92.07;100462.97;5038153;28;20515;-84
2022/09/26 03:38:27;;;;;;;5.20;3.20;;;;;;;10.38;91.49;100449.88;5039063;28;20501;-84
2022/09/26 03:40:53;;;;;;;7.63;3.20;;;;;;;10.39;91.12;100456.94;5037641;28;20048;-84
2022/09/26 03:43:18;;;;;;;7.53;3.27;;;;;;;10.43;90.44;100446.47;5070406;28;20056;-84
2022/09/26 03:45:43;;;;;;;5.40;2.90;;;;;;;10.44;90.27;100446.28;5053467;28;21367;-83
2022/09/26 03:48:09;;;;;;;5.73;3.30;;;;;;;10.44;90.67;100451.72;5039069;28;20581;-83
2022/09/26 03:50:34;;;;;;;7.60;3.20;;;;;;;10.43;90.46;100443.78;5037759;28;20920;-85
2022/09/26 03:53:00;;;;;;;4.87;2.97;;;;;;;10.39;90.87;100438.00;5038664;28;20140;-83
2022/09/26 03:55:26;;;;;;;6.37;3.10;;;;;;;10.41;90.98;100430.47;5038120;28;20041;-84
2022/09/26 03:57:51;;;;;;;7.33;3.00;;;;;;;10.38;91.05;100433.63;5037327;28;20060;-87
2022/09/26 04:00:17;;;;;;;8.23;2.97;;;;;;;10.36;91.29;100421.34;5069843;28;20529;-84
2022/09/26 04:02:43;;;;;;;6.50;3.00;;;;;;;10.35;91.85;100422.38;5070281;28;21169;-83
2022/09/26 04:05:08;;;;;;;8.93;3.30;;;;;;;10.29;91.62;100422.22;5036713;28;21097;-84
2022/09/26 04:07:34;;;;;;;6.73;3.10;;;;;;;10.34;91.56;100421.53;5037960;28;20135;-85
2022/09/26 04:09:59;;;;;;;8.07;3.20;;;;;;;10.29;91.50;100411.38;5070700;28;20033;-85
2022/09/26 04:12:25;;;;;;;7.90;3.37;;;;;;;10.29;92.11;100400.56;5036722;28;20123;-87
2022/09/26 04:14:50;;;;;;;8.03;3.77;;;;;;;10.33;90.82;100397.38;5038063;28;20182;-85
2022/09/26 04:17:16;;;;;;;6.10;3.20;;;;;;;10.38;90.63;100393.00;5037890;28;20090;-85
2022/09/26 04:19:41;;;;;;;6.23;3.23;;;;;;;10.34;90.79;100380.91;5038307;28;20501;-86
2022/09/26 04:22:09;;;;;;;7.07;3.20;;;;;;;10.31;91.07;100374.06;5020093;28;20477;-85
2022/09/26 04:24:35;;;;;;;8.73;3.90;;;;;;;10.28;91.22;100369.09;5037478;28;20661;-84
2022/09/26 04:27:00;;;;;;;10.77;4.30;;;;;;;10.31;91.01;100349.69;5037711;28;20037;-85
2022/09/26 04:29:26;;;;;;;9.50;4.17;;;;;;;10.33;90.84;100351.34;5053036;28;20044;-88
2022/09/26 04:31:52;;;;;;;9.63;4.47;;;;;;;10.34;90.73;100353.03;5037038;28;20037;-85
2022/09/26 04:34:17;;;;;;;9.80;4.53;;;;;;;10.35;91.29;100350.13;5037362;28;20045;-85
2022/09/26 04:36:43;;;;;;;9.40;4.70;;;;;;;10.31;91.84;100344.28;5027133;28;20397;-88
2022/09/26 04:39:09;;;;;;;14.10;5.83;;;;;;;10.25;92.67;100339.75;5037597;28;20036;-85
2022/09/26 04:41:35;;;;;;;13.47;4.87;;;;;;;10.26;92.80;100330.56;5036734;28;20041;-84
2022/09/26 04:44:01;;;;;;;10.03;4.40;;;;;;;10.29;92.29;100326.59;5037452;28;21374;-85
2022/09/26 04:46:28;;;;;;;10.83;4.50;;;;;;;10.29;92.31;100326.59;5069150;28;20044;-85
2022/09/26 04:48:55;;;;;;;10.43;4.50;;;;;;;10.22;93.17;100318.53;5069238;28;20037;-85
2022/09/26 04:51:22;;;;;;;10.80;4.90;;;;;;;10.16;93.26;100311.31;5043917;28;20052;-83
2022/09/26 04:53:49;;;;;;;8.87;4.83;;;;;;;10.18;93.82;100302.97;5037440;28;20045;-85
2022/09/26 04:56:15;;;;;;;10.03;4.33;;;;;;;10.13;93.64;100284.66;5068784;28;20087;-82
2022/09/26 04:58:42;;;;;;;7.97;3.80;;;;;;;10.14;94.33;100273.63;5037926;28;20036;-83
2022/09/26 05:01:19;;;;;;;9.97;4.27;;;;;;;10.19;93.74;100283.78;5036695;28;20033;-84
2022/09/26 05:03:44;;;;;;;11.30;5.47;;;;;;;10.08;95.68;100276.41;5036549;28;20447;-85
2022/09/26 05:06:11;;;;;;;9.60;4.53;;;;;;;10.11;94.85;100273.25;5036743;28;20519;-84
2022/09/26 05:08:40;;;;;;;9.43;4.00;;;;;;;10.09;94.85;100268.06;5037410;28;20234;-85
2022/09/26 05:11:06;;;;;;;11.40;5.10;;;;;;;10.05;96.50;100271.41;5051460;28;20045;-84
2022/09/26 05:13:32;;;;;;;12.50;5.23;;;;;;;10.01;96.22;100245.84;5068944;28;20527;-83
2022/09/26 05:15:58;;;;;;;9.67;4.10;;;;;;;10.01;95.38;100252.09;5037945;28;20041;-86
2022/09/26 05:18:25;;;;;;;10.07;4.63;;;;;;;10.08;94.92;100252.88;5036865;28;20045;-85
2022/09/26 05:20:51;;;;;;;11.00;4.50;;;;;;;10.02;96.29;100247.50;5036895;28;20037;-85
2022/09/26 05:26:25;;;;;;;7.18;3.58;;;;;;;9.97;95.76;100235.47;5042527;28;20493;-84
2022/09/26 05:28:54;;;;;;;7.40;3.63;;;;;;;9.99;97.10;100234.44;5068670;28;20123;-85
2022/09/26 05:31:21;;;;;;;8.63;3.87;;;;;;;9.94;96.92;100233.22;5036489;28;20625;-85
2022/09/26 05:33:46;;;;;;;8.83;3.50;;;;;;;9.97;96.32;100231.94;5036746;28;20059;-83
2022/09/26 05:36:46;;;;;;;11.50;4.70;;;;;;;9.95;96.50;100225.91;5036232;28;20041;-84
2022/09/26 05:41:57;;;;;;;13.90;5.60;;;;;;;9.98;96.55;100230.88;5035881;28;20059;-85
2022/09/26 05:44:23;;;;;;;14.27;5.47;;;;;;;10.02;96.24;100226.66;5036488;28;20420;-85
2022/09/26 05:46:50;;;;;;;10.40;4.43;;;;;;;10.02;95.58;100229.38;5068131;28;20079;-84
2022/09/26 05:49:15;;;;;;;12.83;4.30;;;;;;;10.10;94.89;100222.84;5036131;28;20479;-85
2022/09/26 05:51:40;;;;;;;8.50;4.33;;;;;;;10.12;94.14;100215.34;5036056;28;20082;-84
2022/09/26 05:54:06;;;;;;;12.87;4.50;;;;;;;10.18;94.15;100219.84;5067468;28;20057;-86
2022/09/26 05:56:33;;;;;;;11.80;5.00;;;;;;;10.16;94.28;100221.97;5034000;28;20063;-87
2022/09/26 05:58:58;;;;;;;10.17;4.50;;;;;;;10.17;94.55;100215.47;5035756;28;20041;-86
2022/09/26 06:01:24;;;;;;;11.93;5.20;;;;;;;10.19;94.64;100216.09;5068260;28;20104;-85
2022/09/26 06:03:49;;;;;;;12.93;5.20;;;;;;;10.12;95.22;100199.13;5034623;28;20033;-84
2022/09/26 06:06:17;;;;;;;11.60;5.60;;;;;;;10.14;96.16;100213.22;5034401;28;20045;-84
2022/09/26 06:08:43;;;;;;;11.60;5.27;;;;;;;10.10;96.11;100188.50;5035663;28;20807;-84
2022/09/26 06:11:12;;;;;;;14.43;5.80;;;;;;;10.11;96.25;100178.50;5035407;28;20041;-87
2022/09/26 06:13:39;;;;;;;10.07;5.17;;;;;;;10.08;95.96;100177.06;5036180;28;20041;-87
2022/09/26 06:16:07;;;;;;;13.87;5.47;;;;;;;10.10;96.56;100168.72;5035085;28;20591;-83
2022/09/26 06:18:33;;;;;;;12.53;5.90;;;;;;;10.15;95.63;100166.16;5035502;28;20040;-85
2022/09/26 06:21:03;;;;;;;11.10;4.70;;;;;;;10.14;94.98;100149.13;5035906;28;20090;-83
2022/09/26 06:23:30;;;;;;;12.73;5.60;;;;;;;10.11;95.84;100148.72;5035054;28;20037;-87
2022/09/26 06:25:56;;;;;;;13.37;5.70;;;;;;;10.22;94.62;100137.13;5035428;28;20900;-83
2022/09/26 06:28:21;;;;;;;11.20;5.70;;;;;;;10.08;95.79;100127.53;5067042;28;20148;-86
2022/09/26 06:30:46;;;;;;;12.90;5.70;;;;;;;10.16;95.82;100134.50;5035674;28;20123;-87
2022/09/26 06:33:12;;;;;;;12.53;5.27;;;;;;;10.18;95.84;100127.00;5034986;28;20037;-83
2022/09/26 06:35:37;;;;;;;10.57;4.53;;;;;;;10.18;95.53;100116.16;5035660;28;20119;-83
2022/09/26 06:38:04;;;;;;;9.90;4.60;;;;;;;10.20;95.26;100093.22;5035018;28;20607;-85
2022/09/26 06:40:30;;;;;;;10.03;4.87;;;;;;;10.26;94.19;100092.31;5035333;28;20477;-84
2022/09/26 06:42:56;;;;;;;7.93;4.33;;;;;;;10.29;95.07;100099.16;5034934;28;20552;-85
2022/09/26 06:45:21;;;;;;;11.00;4.30;;;;;;;10.24;95.03;100094.44;5035675;28;20025;-86
2022/09/26 06:47:47;;;;;;;8.23;4.27;;;;;;;10.19;95.78;100091.56;5066791;28;21274;-83
2022/09/26 06:50:13;;;;;;;8.93;4.40;;;;;;;10.25;94.58;100076.28;5035337;28;20473;-83
2022/09/26 06:52:38;;;;;;;9.17;4.20;;;;;;;10.23;96.21;100081.94;5035274;28;20047;-84
2022/09/26 06:55:06;;;;;;;8.47;3.97;;;;;;;10.27;94.94;100069.59;5035302;28;20041;-87
2022/09/26 06:57:39;;;;;;;9.30;3.70;;;;;;;10.26;94.89;100048.97;5035406;28;20029;-87
2022/09/26 07:00:07;;;;;;;7.50;3.83;;;;;;;10.30;94.64;100068.31;5035573;28;20029;-84
2022/09/26 07:02:33;;;;;;;7.97;3.83;;;;;;;10.31;94.13;100048.31;5035034;28;20045;-83
2022/09/26 07:04:58;;;;;;;7.37;4.07;;;;;;;10.32;95.26;100047.25;5035744;28;20419;-84
2022/09/26 07:07:24;;;;;;;7.63;3.30;;;;;;;10.34;94.47;100047.03;5033280;28;20396;-89
2022/09/26 07:09:50;;;;;;;8.30;3.67;;;;;;;10.43;94.38;100051.91;5067063;28;20128;-83
2022/09/26 07:12:15;;;;;;;9.23;3.87;;;;;;;10.42;93.14;100044.84;5034939;28;20037;-85
2022/09/26 07:14:41;;;;;;;7.37;3.40;;;;;;;10.44;93.17;100040.03;5035419;28;20063;-86
2022/09/26 07:17:07;;;;;;;10.03;4.47;;;;;;;10.51;93.05;100029.06;5024607;28;20043;-85
2022/09/26 07:19:32;;;;;;;9.77;4.60;;;;;;;10.53;93.57;100029.69;5033901;28;20044;-84
2022/09/26 07:21:58;;;;;;;6.33;3.20;;;;;;;10.50;92.91;100011.19;5035467;28;20252;-85
2022/09/26 07:24:23;;;;;;;11.23;3.47;;;;;;;10.51;93.39;100012.81;5067209;28;20041;-83
2022/09/26 07:26:48;;;;;;;7.67;3.60;;;;;;;10.57;92.79;100006.50;5034844;28;20033;-84
2022/09/26 07:29:14;;;;;;;5.60;3.17;;;;;;;10.61;92.60;100017.69;5067424;28;20044;-83
2022/09/26 07:31:39;;;;;;;9.40;3.63;;;;;;;10.63;92.88;100021.84;5035188;28;20491;-85
2022/09/26 07:34:06;;;;;;;10.77;4.10;;;;;;;10.70;93.13;100007.34;5034834;28;20124;-85
2022/09/26 07:36:32;;;;;;;10.03;4.40;;;;;;;10.69;92.89;100003.81;5034116;28;20041;-85
2022/09/26 07:38:57;;;;;;;8.67;3.60;;;;;;;10.76;92.48;100011.84;5037867;28;20072;-81
2022/09/26 07:41:22;;;;;;;11.13;4.20;;;;;;;10.77;92.65;100010.75;5069836;28;20047;-85
2022/09/26 07:43:48;;;;;;;9.50;4.07;;;;;;;10.78;93.16;100018.69;5038617;28;20037;-82
2022/09/26 07:51:42;;;;;;;8.50;3.50;;;;;;;10.81;92.89;100006.53;5038082;28;20056;-83
2022/09/26 07:54:07;;;;;;;11.17;4.47;;;;;;;10.72;93.50;99997.91;5038549;28;20488;-82
2022/09/26 07:56:33;;;;;;;9.83;5.10;;;;;;;10.76;94.42;99990.97;5038954;28;20048;-84
2022/09/26 07:59:00;;;;;;;9.20;3.77;;;;;;;10.84;92.93;99978.97;5036803;28;20538;-84
2022/09/26 08:01:32;;;;;;;9.37;4.27;;;;;;;10.84;93.02;99999.81;5039016;28;20070;-84
2022/09/26 08:03:57;;;;;;;11.97;4.97;;;;;;;10.82;93.32;99991.91;5038070;28;20063;-82
2022/09/26 08:06:26;;;;;;;11.00;4.53;;;;;;;10.86;93.94;99989.56;5070262;28;20128;-82
2022/09/26 08:08:53;;;;;;;10.87;4.40;;;;;;;10.85;93.56;99986.03;5038022;28;20100;-84
2022/09/26 08:11:19;;;;;;;6.27;3.80;;;;;;;10.88;93.81;99973.88;5038049;28;20166;-86
2022/09/26 08:13:46;;;;;;;8.73;4.10;;;;;;;10.94;93.24;99984.63;5038275;28;20033;-83
2022/09/26 08:16:18;;;;;;;9.37;4.30;;;;;;;10.88;93.40;99961.19;5038035;28;20098;-83
2022/09/26 08:18:43;;;;;;;8.87;3.70;;;;;;;10.90;94.36;99964.47;5038321;28;20036;-83
2022/09/26 08:21:09;;;;;;;8.93;3.47;;;;;;;10.88;94.40;99963.91;5037818;28;20044;-84
2022/09/26 08:23:34;;;;;;;9.30;3.40;;;;;;;10.95;94.80;99958.34;5038264;28;20393;-83
2022/09/26 08:26:05;;;;;;;6.97;3.90;;;;;;;10.97;94.34;99958.94;5037937;28;20470;-84
2022/09/26 08:28:31;;;;;;;9.30;3.53;;;;;;;11.00;94.08;99954.94;5038539;28;20044;-85
2022/09/26 08:30:59;;;;;;;7.80;3.43;;;;;;;11.06;93.98;99938.53;5037977;28;20112;-84
2022/09/26 08:33:25;;;;;;;7.40;3.30;;;;;;;11.02;93.74;99952.81;5037659;28;20047;-83
2022/09/26 08:35:50;;;;;;;9.13;4.07;;;;;;;11.05;94.00;99963.19;5038026;28;20037;-86
2022/09/26 08:38:16;;;;;;;9.43;3.73;;;;;;;11.12;93.63;99961.16;5037588;28;20090;-82
2022/09/26 08:40:50;;;;;;;10.27;4.07;;;;;;;11.10;93.70;99966.00;5037404;28;20381;-84
2022/09/26 08:43:38;;;;;;;7.13;3.58;;;;;;;11.12;93.36;99958.44;5036723;28;20445;-82
2022/09/26 08:46:55;;;;;;;6.60;3.73;;;;;;;11.12;94.23;99958.44;5035545;28;20124;-84
2022/09/26 08:49:26;;;;;;;7.27;3.80;;;;;;;11.23;93.29;99946.78;5032943;28;20419;-83
2022/09/26 08:51:53;;;;;;;10.23;4.00;;;;;;;11.19;93.65;99958.31;5027745;28;20611;-86
2022/09/26 08:54:32;;;;;;;9.77;4.00;;;;;;;11.14;94.45;99945.50;5035410;28;20238;-85
2022/09/26 08:57:04;;;;;;;8.60;3.70;;;;;;;11.17;93.98;99955.84;5037916;28;20207;-84
2022/09/26 08:59:39;;;;;;;8.50;4.57;;;;;;;11.22;93.98;99939.72;5036901;28;20103;-82
2022/09/26 09:02:17;;;;;;;11.50;4.20;;;;;;;11.24;94.65;99956.53;5036726;28;20065;-85
2022/09/26 09:04:51;;;;;;;10.20;3.80;;;;;;;11.17;94.81;99945.00;5037183;28;20093;-86
2022/09/26 09:07:23;;;;;;;;;;;;;;;11.51;94.21;99938.94;5037628;28;20048;-87
2022/09/26 09:09:52;;;;;;;13.37;5.17;;;;;;;11.26;95.25;99927.31;5068341;28;19929;-83
2022/09/26 09:12:55;;;;;;;13.23;5.13;;;;;;;11.22;97.19;99942.41;5036848;28;20493;-85
2022/09/26 09:15:42;;;;;;;10.83;4.67;;;;;;;11.19;98.49;99932.03;5036999;28;20365;-87
2022/09/26 09:18:28;;;;;;;10.70;4.80;;;;;;;11.03;100.00;99922.75;5036210;28;20032;-85
2022/09/26 09:21:11;;;;;;;9.63;5.17;;;;;;;10.87;100.00;99916.16;5035651;28;20040;-89
2022/09/26 09:24:00;;;;;;;11.77;4.70;;;;;;;10.93;100.00;99907.09;5036013;28;20029;-85
2022/09/26 09:26:50;;;;;;;8.43;4.10;;;;;;;10.84;100.00;99913.09;5044512;28;20076;-85
2022/09/26 09:29:36;;;;;;;11.00;5.17;;;;;;;10.81;100.00;99898.13;5036415;28;20088;-84
2022/09/26 09:32:03;;;;;;;10.20;5.00;;;;;;;10.78;100.00;99893.19;5036717;28;20040;-87
2022/09/26 09:34:33;;;;;;;10.37;4.77;;;;;;;10.71;100.00;99897.91;5036091;28;20028;-84
2022/09/26 09:37:06;;;;;;;11.10;5.00;;;;;;;10.78;100.00;99893.19;5035126;28;20037;-85
2022/09/26 09:39:39;;;;;;;10.47;4.40;;;;;;;10.81;100.00;99876.44;5036630;28;20480;-85
2022/09/26 09:42:11;;;;;;;8.20;4.20;;;;;;;10.79;100.00;99887.53;5036061;28;20218;-86
2022/09/26 09:44:43;;;;;;;10.10;5.10;;;;;;;10.88;100.00;99870.91;5036158;28;20086;-84
2022/09/26 09:47:16;;;;;;;8.30;4.03;;;;;;;10.88;100.00;99857.38;5036286;28;20057;-84
2022/09/26 09:49:43;;;;;;;12.30;4.67;;;;;;;10.88;100.00;99862.78;5036188;28;20039;-86
2022/09/26 09:52:18;;;;;;;8.33;4.10;;;;;;;10.96;100.00;99859.69;5036187;28;20077;-85
2022/09/26 09:55:14;;;;;;;10.70;4.33;;;;;;;11.00;100.00;99851.94;5035943;28;20028;-85
2022/09/26 09:57:58;;;;;;;;;;;;;;;11.02;100.00;99849.81;5036682;28;20032;-84
2022/09/26 10:00:24;;;;;;;8.97;4.40;;;;;;;11.06;100.00;99837.44;5042247;28;20284;-85
2022/09/26 10:03:23;;;;;;;8.53;4.30;;;;;;;11.02;100.00;99838.97;5038367;28;21510;-85
2022/09/26 10:05:52;;;;;;;13.23;4.60;;;;;;;11.13;100.00;99832.69;5024124;28;20087;-85
2022/09/26 10:08:40;;;;;;;11.50;4.63;;;;;;;11.12;100.00;99828.31;5031091;28;20159;-82
2022/09/26 10:11:27;;;;;;;11.40;4.80;;;;;;;11.18;100.00;99826.53;5032590;28;20025;-83
2022/09/26 10:13:55;;;;;;;7.87;4.30;;;;;;;11.18;100.00;99813.81;5032174;28;20033;-82
2022/09/26 10:16:21;;;;;;;8.17;4.37;;;;;;;11.21;100.00;99816.03;5032319;28;20048;-82
2022/09/26 10:18:59;;;;;;;10.27;4.20;;;;;;;11.26;100.00;99821.56;5031559;28;20060;-84
2022/09/26 10:21:34;;;;;;;10.57;4.10;;;;;;;11.23;100.00;99819.34;5031917;28;20033;-85
2022/09/26 10:24:03;;;;;;;9.43;4.50;;;;;;;11.19;100.00;99810.03;5031700;28;20554;-84
2022/09/26 10:26:33;;;;;;;12.43;5.10;;;;;;;11.19;100.00;99799.19;5032476;28;20037;-83
2022/09/26 10:29:05;;;;;;;9.80;4.23;;;;;;;11.12;100.00;99796.63;5031190;28;20060;-85
2022/09/26 10:31:38;;;;;;;9.90;4.40;;;;;;;11.19;100.00;99801.06;5032167;28;20125;-88
2022/09/26 10:34:21;;;;;;;11.50;5.03;;;;;;;11.11;100.00;99784.13;5031237;28;20100;-85
2022/09/26 10:36:46;;;;;;;10.60;5.20;;;;;;;11.11;100.00;99783.28;5032007;28;20033;-84
2022/09/26 10:42:00;;;;;;;10.60;5.40;;;;;;;11.12;100.00;99776.81;5031838;28;20673;-85
2022/09/26 10:44:31;;;;;;;9.57;4.80;;;;;;;11.17;100.00;99776.91;5063506;28;20124;-86
2022/09/26 10:46:59;;;;;;;8.50;4.50;;;;;;;11.18;100.00;99784.00;5032256;28;20370;-86
2022/09/26 10:49:38;;;;;;;13.33;5.33;;;;;;;11.17;100.00;99776.91;5030278;28;20154;-86
2022/09/26 10:52:18;;;;;;;11.73;5.57;;;;;;;11.03;100.00;99770.13;5063588;28;21038;-84
2022/09/26 10:54:54;;;;;;;12.80;5.83;;;;;;;11.15;100.00;99773.63;5031755;28;20047;-84
2022/09/26 10:57:26;;;;;;;11.87;5.80;;;;;;;11.06;100.00;99772.38;5032164;28;20033;-84
2022/09/26 11:00:37;;;;;;;12.13;5.30;;;;;;;11.05;100.00;99768.00;5031952;28;20060;-83
2022/09/26 11:03:04;;;;;;;11.50;5.90;;;;;;;10.98;100.00;99762.72;4987874;28;20085;-83
2022/09/26 11:05:56;;;;;;;12.80;6.10;;;;;;;10.98;100.00;99771.66;5026043;28;20748;-84
2022/09/26 11:08:33;;;;;;;8.73;5.10;;;;;;;11.11;100.00;99761.59;5029879;28;20045;-85
2022/09/26 11:11:02;;;;;;;13.40;6.50;;;;;;;11.03;100.00;99752.00;5033504;28;20039;-85
2022/09/26 11:13:37;;;;;;;12.40;6.40;;;;;;;11.00;100.00;99757.88;5034340;28;20029;-83
2022/09/26 11:16:12;;;;;;;12.17;6.43;;;;;;;10.97;100.00;99767.34;5035173;28;20124;-83
2022/09/26 11:18:40;;;;;;;;;;;;;;;11.18;100.00;99748.75;5038053;28;20037;-83
2022/09/26 11:21:31;;;;;;;11.07;6.90;;;;;;;10.99;100.00;99748.13;5045487;28;19925;-82
2022/09/26 11:24:10;;;;;;;13.60;6.43;;;;;;;10.99;100.00;99756.25;5039070;28;20159;-83
2022/09/26 11:26:48;;;;;;;10.87;6.10;;;;;;;11.03;100.00;99762.00;5039599;28;20037;-83
2022/09/26 11:29:34;;;;;;;14.10;6.60;;;;;;;11.01;100.00;99756.00;5028762;28;20388;-82
2022/09/26 11:32:01;;;;;;;9.97;5.77;;;;;;;11.01;100.00;99739.75;5038825;28;20028;-83
2022/09/26 11:34:30;;;;;;;11.00;6.33;;;;;;;10.97;100.00;99751.06;5038588;28;20040;-87
2022/09/26 11:37:01;;;;;;;13.93;6.97;;;;;;;10.95;100.00;99746.97;5028922;28;20094;-82
2022/09/26 11:39:49;;;;;;;8.87;5.77;;;;;;;10.98;100.00;99750.00;5038551;28;20480;-83
2022/09/26 11:42:37;;;;;;;8.87;5.27;;;;;;;11.00;100.00;99740.81;5037655;28;20591;-85
2022/09/26 11:45:14;;;;;;;9.23;4.90;;;;;;;10.99;100.00;99748.13;5038035;28;20128;-83
2022/09/26 11:47:58;;;;;;;12.13;5.97;;;;;;;10.96;100.00;99746.72;5071285;28;20033;-84
2022/09/26 11:50:39;;;;;;;10.63;5.55;;;;;;;11.01;100.00;99734.31;5037891;28;20033;-83
2022/09/26 11:53:10;;;;;;;12.60;6.00;;;;;;;10.97;100.00;99729.41;5037803;28;20049;-83
2022/09/26 11:56:14;;;;;;;10.17;5.30;;;;;;;10.97;100.00;99729.41;5069876;28;20033;-82